Time;durP1;ratioP1;P1;durP2;ratioP2;P2;SDS_P1;SDS_P2;PMS_P1;PMS_P2;Temp;Humidity;BMP_temperature;BMP_pressure;BME280_temperature;BME280_humidity;BME280_pressure;Samples;Min_cycle;Max_cycle;Signal;HPM_P1;HPM_P2
2021/10/05 00:01:30;;;;;;;5.93;1.58;;;;;;;;;;5021688;28;20073;-62
2021/10/05 00:03:57;;;;;;;5.38;1.50;;;;;;;;;;5013466;28;20050;-60
2021/10/05 00:06:23;;;;;;;7.60;1.30;;;;;;;;;;5001851;28;20046;-62
2021/10/05 00:08:50;;;;;;;5.93;1.02;;;;;;;;;;4997461;28;20054;-57
2021/10/05 00:11:19;;;;;;;2.60;0.90;;;;;;;;;;5000840;28;20061;-63
2021/10/05 00:13:46;;;;;;;2.15;0.77;;;;;;;;;;4998719;28;20108;-62
2021/10/05 00:16:12;;;;;;;4.45;0.88;;;;;;;;;;5004857;28;20042;-61
2021/10/05 00:18:39;;;;;;;4.35;0.85;;;;;;;;;;5002971;28;20045;-61
2021/10/05 00:21:05;;;;;;;4.80;1.00;;;;;;;;;;5023003;28;20041;-61
2021/10/05 00:23:32;;;;;;;3.03;0.90;;;;;;;;;;5018595;28;20045;-60
2021/10/05 00:25:59;;;;;;;3.42;0.90;;;;;;;;;;5022160;28;20038;-58
2021/10/05 00:28:26;;;;;;;3.08;0.82;;;;;;;;;;5022991;28;20037;-63
2021/10/05 00:30:53;;;;;;;3.47;0.90;;;;;;;;;;5019176;28;20061;-59
2021/10/05 00:33:19;;;;;;;2.88;1.02;;;;;;;;;;5022763;28;20038;-62
2021/10/05 00:35:46;;;;;;;6.05;1.10;;;;;;;;;;5004295;28;20034;-61
2021/10/05 00:38:12;;;;;;;3.28;1.00;;;;;;;;;;5009424;28;20046;-61
2021/10/05 00:40:39;;;;;;;7.45;0.90;;;;;;;;;;5005755;28;20113;-61
2021/10/05 00:43:08;;;;;;;4.20;1.20;;;;;;;;;;5029503;28;20040;-62
2021/10/05 00:45:36;;;;;;;4.28;1.10;;;;;;;;;;5038357;28;20045;-63
2021/10/05 00:48:02;;;;;;;2.45;0.98;;;;;;;;;;5033803;28;20049;-62
2021/10/05 00:50:29;;;;;;;5.05;1.00;;;;;;;;;;5024473;28;20045;-63
2021/10/05 00:52:56;;;;;;;4.00;0.80;;;;;;;;;;5022774;28;20037;-63
2021/10/05 00:55:22;;;;;;;3.78;1.23;;;;;;;;;;5018948;28;20115;-58
2021/10/05 00:57:49;;;;;;;3.28;0.85;;;;;;;;;;5030297;28;20114;-63
2021/10/05 01:00:17;;;;;;;4.20;1.10;;;;;;;;;;5035181;28;20065;-62
2021/10/05 01:02:47;;;;;;;6.50;1.10;;;;;;;;;;5025288;28;20045;-62
2021/10/05 01:05:14;;;;;;;4.07;0.90;;;;;;;;;;5003867;28;20041;-63
2021/10/05 01:07:40;;;;;;;3.08;1.02;;;;;;;;;;5042209;28;20053;-62
2021/10/05 01:10:07;;;;;;;5.35;1.05;;;;;;;;;;5042298;28;20107;-57
2021/10/05 01:12:34;;;;;;;3.40;1.30;;;;;;;;;;5037362;28;20033;-63
2021/10/05 01:15:00;;;;;;;3.05;1.20;;;;;;;;;;5043344;28;20047;-60
2021/10/05 01:17:27;;;;;;;3.75;1.00;;;;;;;;;;5023673;28;20096;-64
2021/10/05 01:19:57;;;;;;;2.17;1.00;;;;;;;;;;5024467;28;20101;-59
2021/10/05 01:22:25;;;;;;;2.65;0.90;;;;;;;;;;5023611;28;20058;-59
2021/10/05 01:24:51;;;;;;;3.50;1.33;;;;;;;;;;5024977;28;20037;-61
2021/10/05 01:27:18;;;;;;;3.08;0.88;;;;;;;;;;5030666;28;20294;-60
2021/10/05 01:29:44;;;;;;;3.13;0.82;;;;;;;;;;5040983;28;20136;-64
2021/10/05 01:32:11;;;;;;;4.35;1.00;;;;;;;;;;5037324;28;20048;-63
2021/10/05 01:34:37;;;;;;;8.05;1.25;;;;;;;;;;5043489;28;20041;-58
2021/10/05 01:37:04;;;;;;;2.92;1.13;;;;;;;;;;5032935;28;20041;-57
2021/10/05 01:39:32;;;;;;;3.95;1.00;;;;;;;;;;5021920;28;20049;-59
2021/10/05 01:42:00;;;;;;;5.07;1.52;;;;;;;;;;5024524;28;20045;-58
2021/10/05 01:44:26;;;;;;;3.45;0.93;;;;;;;;;;5024118;28;20045;-59
2021/10/05 01:46:53;;;;;;;3.03;0.90;;;;;;;;;;5004524;28;20050;-59
2021/10/05 01:49:21;;;;;;;2.95;0.90;;;;;;;;;;5003096;28;20078;-58
2021/10/05 01:51:48;;;;;;;9.68;1.38;;;;;;;;;;5001114;28;20049;-57
2021/10/05 01:54:14;;;;;;;3.25;1.20;;;;;;;;;;5020761;28;20052;-57
2021/10/05 01:56:42;;;;;;;2.15;0.93;;;;;;;;;;5021450;28;20104;-57
2021/10/05 01:59:09;;;;;;;2.38;0.90;;;;;;;;;;5015288;28;20104;-57
2021/10/05 02:01:38;;;;;;;2.67;1.00;;;;;;;;;;5020318;28;20053;-56
2021/10/05 02:04:05;;;;;;;4.40;0.95;;;;;;;;;;5002305;28;20054;-56
2021/10/05 02:06:31;;;;;;;3.70;0.93;;;;;;;;;;5037937;28;20131;-59
2021/10/05 02:08:57;;;;;;;4.35;0.98;;;;;;;;;;5038268;28;20122;-59
2021/10/05 02:11:25;;;;;;;4.28;1.00;;;;;;;;;;5023179;28;20049;-59
2021/10/05 02:13:53;;;;;;;3.38;1.00;;;;;;;;;;5027821;28;20049;-57
2021/10/05 02:16:19;;;;;;;3.43;1.20;;;;;;;;;;5020773;28;20041;-57
2021/10/05 02:18:47;;;;;;;5.85;1.17;;;;;;;;;;5025147;28;20049;-57
2021/10/05 02:21:15;;;;;;;3.28;1.10;;;;;;;;;;5041089;28;20045;-57
2021/10/05 02:26:26;;;;;;;2.67;1.00;;;;;;;;;;5021159;28;19928;-57
2021/10/05 02:28:53;;;;;;;4.47;1.05;;;;;;;;;;5018270;28;20528;-59
2021/10/05 02:31:22;;;;;;;4.00;1.67;;;;;;;;;;5020898;28;20053;-60
2021/10/05 02:33:49;;;;;;;4.35;0.95;;;;;;;;;;5017463;28;20054;-57
2021/10/05 02:36:16;;;;;;;2.00;0.90;;;;;;;;;;5022069;28;20057;-59
2021/10/05 02:38:43;;;;;;;2.83;0.90;;;;;;;;;;5018846;28;20033;-63
2021/10/05 02:41:10;;;;;;;7.28;1.17;;;;;;;;;;5036302;28;20045;-58
2021/10/05 02:43:36;;;;;;;4.03;0.93;;;;;;;;;;5021441;28;20037;-61
2021/10/05 02:46:04;;;;;;;2.65;1.00;;;;;;;;;;5035136;28;20041;-63
2021/10/05 02:48:31;;;;;;;4.65;1.08;;;;;;;;;;5043028;28;20037;-59
2021/10/05 02:50:57;;;;;;;4.82;1.85;;;;;;;;;;5022782;28;20061;-58
2021/10/05 02:53:24;;;;;;;3.00;1.10;;;;;;;;;;5022609;28;20048;-62
2021/10/05 02:55:50;;;;;;;4.53;1.00;;;;;;;;;;5019728;28;20050;-60
2021/10/05 02:58:17;;;;;;;3.00;1.08;;;;;;;;;;5020930;28;20022;-60
2021/10/05 03:00:45;;;;;;;3.25;1.00;;;;;;;;;;5017466;28;20046;-59
2021/10/05 03:03:12;;;;;;;3.45;1.10;;;;;;;;;;5020639;28;20495;-62
2021/10/05 03:05:39;;;;;;;1.97;1.00;;;;;;;;;;5016712;28;20053;-60
2021/10/05 03:08:06;;;;;;;4.68;1.02;;;;;;;;;;5022563;28;20128;-58
2021/10/05 03:10:33;;;;;;;2.90;1.27;;;;;;;;;;5021226;28;20060;-62
2021/10/05 03:12:59;;;;;;;3.35;1.08;;;;;;;;;;5013130;28;20046;-60
2021/10/05 03:15:25;;;;;;;3.40;1.20;;;;;;;;;;4999607;28;20038;-60
2021/10/05 03:17:52;;;;;;;3.47;1.05;;;;;;;;;;5030133;28;20099;-57
2021/10/05 03:20:20;;;;;;;1.25;0.75;;;;;;;;;;5037732;28;20048;-62
2021/10/05 03:22:46;;;;;;;2.87;1.17;;;;;;;;;;5038007;28;20045;-60
2021/10/05 03:25:13;;;;;;;2.03;0.90;;;;;;;;;;5040196;28;20286;-61
2021/10/05 03:27:39;;;;;;;2.53;1.10;;;;;;;;;;5036135;28;20045;-60
2021/10/05 03:30:07;;;;;;;2.00;0.98;;;;;;;;;;5040279;28;20119;-59
2021/10/05 03:32:34;;;;;;;3.10;1.10;;;;;;;;;;5038739;28;20065;-58
2021/10/05 03:35:00;;;;;;;2.10;1.13;;;;;;;;;;5038738;28;20047;-61
2021/10/05 03:37:28;;;;;;;1.42;0.85;;;;;;;;;;5026603;28;20034;-62
2021/10/05 03:39:54;;;;;;;3.07;0.93;;;;;;;;;;5021662;28;20041;-59
2021/10/05 03:42:21;;;;;;;4.75;1.40;;;;;;;;;;5019307;28;20053;-63
2021/10/05 03:44:47;;;;;;;2.05;1.10;;;;;;;;;;5033611;28;20069;-62
2021/10/05 03:47:14;;;;;;;5.65;1.13;;;;;;;;;;5017269;28;20042;-63
2021/10/05 03:49:42;;;;;;;2.90;1.25;;;;;;;;;;5015266;28;20038;-63
2021/10/05 03:52:08;;;;;;;5.70;1.20;;;;;;;;;;5022196;28;20069;-57
2021/10/05 03:54:36;;;;;;;2.40;1.00;;;;;;;;;;5023768;28;20038;-57
2021/10/05 03:57:03;;;;;;;2.77;1.07;;;;;;;;;;5023745;28;20057;-58
2021/10/05 03:59:29;;;;;;;3.10;0.90;;;;;;;;;;5043131;28;20294;-60
2021/10/05 04:01:56;;;;;;;2.00;1.00;;;;;;;;;;5039085;28;20041;-58
2021/10/05 04:04:22;;;;;;;1.25;0.90;;;;;;;;;;5022329;28;20048;-58
2021/10/05 04:06:48;;;;;;;3.88;1.10;;;;;;;;;;5024839;28;20042;-58
2021/10/05 04:09:16;;;;;;;4.18;1.20;;;;;;;;;;5037189;28;20144;-60
2021/10/05 04:11:44;;;;;;;1.73;0.90;;;;;;;;;;5028362;28;20038;-60
2021/10/05 04:14:11;;;;;;;1.25;0.80;;;;;;;;;;5005474;28;20425;-58
2021/10/05 04:16:37;;;;;;;5.93;1.10;;;;;;;;;;5005321;28;20057;-60
2021/10/05 04:19:04;;;;;;;2.72;0.90;;;;;;;;;;5028512;28;20037;-60
2021/10/05 04:21:31;;;;;;;3.83;1.10;;;;;;;;;;5028925;28;20050;-60
2021/10/05 04:23:57;;;;;;;5.80;0.80;;;;;;;;;;5020938;28;20038;-59
2021/10/05 04:26:24;;;;;;;3.35;1.00;;;;;;;;;;5026730;28;20034;-62
2021/10/05 04:28:51;;;;;;;3.08;1.10;;;;;;;;;;5035206;28;20045;-64
2021/10/05 04:31:18;;;;;;;3.17;1.20;;;;;;;;;;5043012;28;20065;-57
2021/10/05 04:33:45;;;;;;;2.55;1.05;;;;;;;;;;5034409;28;20127;-62
2021/10/05 04:36:11;;;;;;;4.57;1.05;;;;;;;;;;5022492;28;20149;-63
2021/10/05 04:38:38;;;;;;;2.60;1.10;;;;;;;;;;5020455;28;20057;-61
2021/10/05 04:41:06;;;;;;;3.20;1.05;;;;;;;;;;5038528;28;20037;-62
2021/10/05 04:43:33;;;;;;;3.30;1.15;;;;;;;;;;5022543;28;20092;-63
2021/10/05 04:46:00;;;;;;;4.70;1.10;;;;;;;;;;5003870;28;20058;-64
2021/10/05 04:48:27;;;;;;;1.00;0.90;;;;;;;;;;5002047;28;20038;-61
2021/10/05 04:50:54;;;;;;;2.08;0.88;;;;;;;;;;4998602;28;20062;-62
2021/10/05 04:53:21;;;;;;;2.38;1.00;;;;;;;;;;5041540;28;20037;-62
2021/10/05 04:55:48;;;;;;;3.25;1.13;;;;;;;;;;5039241;28;20051;-62
2021/10/05 04:58:15;;;;;;;2.03;0.90;;;;;;;;;;5023713;28;20104;-64
2021/10/05 05:00:41;;;;;;;4.70;1.15;;;;;;;;;;5016082;28;20037;-66
2021/10/05 05:03:09;;;;;;;1.33;0.80;;;;;;;;;;5022424;28;20115;-62
2021/10/05 05:05:36;;;;;;;3.00;1.20;;;;;;;;;;5009201;28;20225;-66
2021/10/05 05:08:04;;;;;;;3.28;0.98;;;;;;;;;;5038757;28;20103;-66
2021/10/05 05:10:31;;;;;;;2.22;0.70;;;;;;;;;;5027595;28;20045;-65
2021/10/05 05:12:57;;;;;;;2.95;1.17;;;;;;;;;;5018860;28;20057;-62
2021/10/05 05:15:24;;;;;;;2.85;1.08;;;;;;;;;;5017541;28;20041;-66
2021/10/05 05:17:50;;;;;;;3.65;1.02;;;;;;;;;;5027110;28;20053;-63
2021/10/05 05:20:18;;;;;;;1.63;1.00;;;;;;;;;;5036009;28;20037;-63
2021/10/05 05:22:45;;;;;;;4.10;1.20;;;;;;;;;;5030400;28;20064;-64
2021/10/05 05:25:13;;;;;;;2.85;1.20;;;;;;;;;;5037822;28;20093;-64
2021/10/05 05:27:40;;;;;;;2.63;1.02;;;;;;;;;;5019490;28;20184;-63
2021/10/05 05:30:07;;;;;;;4.18;1.38;;;;;;;;;;5002606;28;20121;-64
2021/10/05 05:32:35;;;;;;;5.97;2.05;;;;;;;;;;5002768;28;20131;-66
2021/10/05 05:35:01;;;;;;;3.22;0.90;;;;;;;;;;5019614;28;20054;-66
2021/10/05 05:37:29;;;;;;;6.35;1.27;;;;;;;;;;5015034;28;20054;-65
2021/10/05 05:39:56;;;;;;;3.17;1.13;;;;;;;;;;5021965;28;20042;-63
2021/10/05 05:42:22;;;;;;;2.20;1.00;;;;;;;;;;5019798;28;20041;-61
2021/10/05 05:44:50;;;;;;;2.53;1.08;;;;;;;;;;5021783;28;20050;-67
2021/10/05 05:47:19;;;;;;;4.80;1.10;;;;;;;;;;5009426;28;20075;-63
2021/10/05 05:49:45;;;;;;;;;;;;;;;;;;5001708;28;20124;-66
2021/10/05 05:52:11;;;;;;;2.63;1.10;;;;;;;;;;5006195;28;19925;-65
2021/10/05 05:54:39;;;;;;;3.55;1.30;;;;;;;;;;5031504;28;20087;-66
2021/10/05 05:57:06;;;;;;;10.43;1.48;;;;;;;;;;5028519;28;20061;-66
2021/10/05 05:59:35;;;;;;;3.88;1.33;;;;;;;;;;5002928;28;20050;-61
2021/10/05 06:02:01;;;;;;;;;;;;;;;;;;5001556;28;20058;-64
2021/10/05 06:04:27;;;;;;;3.42;1.02;;;;;;;;;;5019911;28;19925;-62
2021/10/05 06:06:54;;;;;;;6.65;1.20;;;;;;;;;;5033438;28;20045;-59
2021/10/05 06:09:21;;;;;;;3.38;1.15;;;;;;;;;;5016945;28;20041;-62
2021/10/05 06:11:50;;;;;;;3.42;1.10;;;;;;;;;;5022518;28;20050;-61
2021/10/05 06:14:17;;;;;;;4.82;1.35;;;;;;;;;;5016379;28;20049;-62
2021/10/05 06:16:43;;;;;;;34.47;5.38;;;;;;;;;;5023075;28;20119;-57
2021/10/05 06:19:11;;;;;;;10.10;2.28;;;;;;;;;;5018435;28;20053;-60
2021/10/05 06:21:37;;;;;;;4.13;1.40;;;;;;;;;;5020839;28;20046;-58
2021/10/05 06:24:04;;;;;;;2.92;1.33;;;;;;;;;;5017347;28;20050;-57
2021/10/05 06:26:30;;;;;;;4.95;1.42;;;;;;;;;;5020242;28;20057;-61
2021/10/05 06:28:58;;;;;;;6.28;1.48;;;;;;;;;;5008626;28;20112;-57
2021/10/05 06:31:25;;;;;;;2.97;1.38;;;;;;;;;;5011331;28;20042;-60
2021/10/05 06:33:51;;;;;;;3.30;1.27;;;;;;;;;;5014402;28;20038;-57
2021/10/05 06:36:18;;;;;;;4.32;1.70;;;;;;;;;;5019285;28;20050;-57
2021/10/05 06:38:44;;;;;;;2.00;1.20;;;;;;;;;;5020117;28;20615;-59
2021/10/05 06:41:12;;;;;;;4.45;1.63;;;;;;;;;;5017134;28;20049;-59
2021/10/05 06:43:39;;;;;;;5.77;1.53;;;;;;;;;;4999772;28;20042;-61
2021/10/05 06:46:07;;;;;;;20.00;3.83;;;;;;;;;;5026628;28;20501;-59
2021/10/05 06:48:34;;;;;;;9.07;2.60;;;;;;;;;;5019835;28;20030;-61
2021/10/05 06:51:02;;;;;;;14.68;2.30;;;;;;;;;;5003870;28;20054;-63
2021/10/05 06:53:28;;;;;;;4.10;1.55;;;;;;;;;;5021611;28;20038;-65
2021/10/05 06:55:55;;;;;;;10.20;2.08;;;;;;;;;;5037951;28;20064;-62
2021/10/05 06:58:21;;;;;;;5.63;1.60;;;;;;;;;;5040691;28;20049;-61
2021/10/05 07:00:50;;;;;;;6.25;1.67;;;;;;;;;;5021780;28;20053;-59
2021/10/05 07:03:17;;;;;;;;;;;;;;;;;;5020435;28;20053;-62
2021/10/05 07:05:45;;;;;;;3.35;1.55;;;;;;;;;;5019285;28;19975;-58
2021/10/05 07:08:12;;;;;;;3.80;1.63;;;;;;;;;;5020409;28;20066;-61
2021/10/05 07:10:42;;;;;;;7.20;1.40;;;;;;;;;;5019992;28;20037;-64
2021/10/05 07:13:09;;;;;;;4.07;1.60;;;;;;;;;;5039420;28;20069;-63
2021/10/05 07:15:36;;;;;;;2.65;1.42;;;;;;;;;;5027886;28;20034;-64
2021/10/05 07:18:02;;;;;;;5.50;1.52;;;;;;;;;;5021342;28;20069;-64
2021/10/05 07:20:30;;;;;;;2.65;1.33;;;;;;;;;;5021800;28;20045;-63
2021/10/05 07:22:58;;;;;;;6.47;1.23;;;;;;;;;;5021868;28;20053;-64
2021/10/05 07:25:25;;;;;;;4.80;1.40;;;;;;;;;;5019363;28;20048;-63
2021/10/05 07:27:55;;;;;;;4.32;1.70;;;;;;;;;;5031707;28;20037;-65
2021/10/05 07:30:24;;;;;;;4.05;1.50;;;;;;;;;;5034491;28;20056;-60
2021/10/05 07:32:51;;;;;;;9.15;1.90;;;;;;;;;;5020332;28;20050;-65
2021/10/05 07:35:19;;;;;;;3.40;1.60;;;;;;;;;;5019022;28;20057;-64
2021/10/05 07:37:45;;;;;;;6.22;1.85;;;;;;;;;;5039837;28;20056;-64
2021/10/05 07:40:16;;;;;;;2.78;1.45;;;;;;;;;;5040354;28;20045;-62
2021/10/05 07:42:42;;;;;;;6.63;1.48;;;;;;;;;;5016113;28;20054;-62
2021/10/05 07:45:09;;;;;;;6.63;1.80;;;;;;;;;;5018520;28;20030;-60
2021/10/05 07:47:36;;;;;;;2.42;1.50;;;;;;;;;;5015442;28;20045;-66
2021/10/05 07:50:03;;;;;;;4.10;1.40;;;;;;;;;;5018555;28;20042;-63
2021/10/05 07:52:29;;;;;;;3.85;1.50;;;;;;;;;;5025493;28;20038;-62
2021/10/05 07:54:56;;;;;;;3.50;1.35;;;;;;;;;;5018713;28;20189;-59
2021/10/05 07:57:24;;;;;;;2.83;1.42;;;;;;;;;;5016443;28;20037;-64
2021/10/05 07:59:52;;;;;;;3.03;1.40;;;;;;;;;;5018598;28;20041;-65
2021/10/05 08:02:18;;;;;;;5.63;1.52;;;;;;;;;;5014856;28;20046;-59
2021/10/05 08:04:45;;;;;;;6.05;1.38;;;;;;;;;;5020362;28;20052;-60
2021/10/05 08:07:11;;;;;;;2.47;1.27;;;;;;;;;;5021488;28;20041;-64
2021/10/05 08:09:38;;;;;;;3.95;1.23;;;;;;;;;;5039273;28;20057;-63
2021/10/05 08:12:05;;;;;;;2.08;1.15;;;;;;;;;;5022515;28;20304;-58
2021/10/05 08:14:33;;;;;;;6.10;1.63;;;;;;;;;;5019198;28;20127;-62
2021/10/05 08:17:00;;;;;;;11.65;1.83;;;;;;;;;;5016926;28;20046;-58
2021/10/05 08:19:29;;;;;;;2.90;1.13;;;;;;;;;;5020753;28;20059;-64
2021/10/05 08:21:55;;;;;;;2.95;0.98;;;;;;;;;;5021440;28;20049;-65
2021/10/05 08:24:22;;;;;;;3.72;1.30;;;;;;;;;;5037470;28;20041;-61
2021/10/05 08:26:49;;;;;;;4.50;1.20;;;;;;;;;;5038025;28;20120;-65
2021/10/05 08:29:18;;;;;;;2.20;1.17;;;;;;;;;;5018445;28;20080;-59
2021/10/05 08:31:46;;;;;;;5.85;1.35;;;;;;;;;;5019308;28;20053;-63
2021/10/05 08:34:13;;;;;;;6.18;1.52;;;;;;;;;;5019133;28;20084;-64
2021/10/05 08:36:39;;;;;;;8.93;1.92;;;;;;;;;;5023706;28;20050;-60
2021/10/05 08:39:06;;;;;;;3.65;1.60;;;;;;;;;;5026495;28;20115;-65
2021/10/05 08:41:34;;;;;;;2.58;1.30;;;;;;;;;;5028148;28;20108;-64
2021/10/05 08:44:01;;;;;;;2.50;1.23;;;;;;;;;;5019614;28;20060;-63
2021/10/05 08:46:29;;;;;;;4.05;1.70;;;;;;;;;;5022280;28;20041;-64
2021/10/05 08:48:57;;;;;;;3.90;1.10;;;;;;;;;;5019597;28;20034;-61
2021/10/05 08:51:23;;;;;;;8.57;2.70;;;;;;;;;;5023622;28;20049;-61
2021/10/05 08:53:50;;;;;;;5.80;2.15;;;;;;;;;;5023172;28;20054;-62
2021/10/05 08:56:16;;;;;;;1.83;0.80;;;;;;;;;;5025933;28;20056;-65
2021/10/05 08:58:43;;;;;;;4.10;1.70;;;;;;;;;;5021293;28;20053;-62
2021/10/05 09:01:11;;;;;;;4.65;1.98;;;;;;;;;;5022543;28;20073;-62
2021/10/05 09:03:39;;;;;;;7.38;1.83;;;;;;;;;;5020223;28;20052;-64
2021/10/05 09:06:11;;;;;;;4.53;1.73;;;;;;;;;;5019772;28;20045;-64
2021/10/05 09:08:39;;;;;;;5.95;1.50;;;;;;;;;;5021204;28;20030;-65
2021/10/05 09:11:06;;;;;;;;;;;;;;;;;;5013840;28;20048;-64
2021/10/05 09:13:33;;;;;;;3.65;1.50;;;;;;;;;;5037296;28;19929;-59
2021/10/05 09:16:00;;;;;;;4.20;1.42;;;;;;;;;;5017518;28;20041;-65
2021/10/05 09:18:26;;;;;;;3.60;1.65;;;;;;;;;;5021647;28;20054;-62
2021/10/05 09:20:53;;;;;;;6.10;2.00;;;;;;;;;;5043645;28;20134;-69
2021/10/05 09:23:21;;;;;;;10.95;1.95;;;;;;;;;;5040652;28;20111;-64
2021/10/05 09:25:50;;;;;;;5.00;1.77;;;;;;;;;;5026600;28;20058;-66
2021/10/05 09:28:18;;;;;;;2.67;1.58;;;;;;;;;;5008117;28;20057;-67
2021/10/05 09:30:55;;;;;;;3.13;1.40;;;;;;;;;;5002042;28;20045;-67
2021/10/05 09:33:22;;;;;;;9.50;2.22;;;;;;;;;;5001784;28;20058;-62
2021/10/05 09:35:48;;;;;;;4.90;1.60;;;;;;;;;;5002811;28;20504;-63
2021/10/05 09:38:15;;;;;;;4.68;2.22;;;;;;;;;;4999872;28;20136;-64
2021/10/05 09:40:57;;;;;;;6.18;1.73;;;;;;;;;;5004818;28;20060;-59
2021/10/05 09:43:24;;;;;;;10.15;1.83;;;;;;;;;;5000435;28;20033;-60
2021/10/05 09:45:51;;;;;;;5.22;2.03;;;;;;;;;;5003184;28;20042;-61
2021/10/05 09:48:17;;;;;;;4.22;1.27;;;;;;;;;;5021598;28;20033;-64
2021/10/05 09:50:44;;;;;;;3.75;1.40;;;;;;;;;;5033679;28;20041;-64
2021/10/05 09:53:11;;;;;;;6.90;1.50;;;;;;;;;;5023069;28;20050;-60
2021/10/05 09:55:38;;;;;;;4.55;1.23;;;;;;;;;;5000510;28;20046;-66
2021/10/05 09:58:07;;;;;;;6.60;1.60;;;;;;;;;;5019562;28;20127;-62
2021/10/05 10:00:36;;;;;;;4.60;1.65;;;;;;;;;;5020470;28;20054;-65
2021/10/05 10:03:04;;;;;;;4.65;1.50;;;;;;;;;;5000449;28;20046;-65
2021/10/05 10:05:30;;;;;;;6.13;1.58;;;;;;;;;;5001286;28;20041;-62
2021/10/05 10:07:58;;;;;;;13.00;1.50;;;;;;;;;;5012791;28;20036;-62
2021/10/05 10:10:26;;;;;;;4.95;1.92;;;;;;;;;;5020116;28;20042;-61
2021/10/05 10:12:53;;;;;;;4.57;1.42;;;;;;;;;;5005102;28;20053;-62
2021/10/05 10:15:24;;;;;;;4.70;1.60;;;;;;;;;;5002511;28;20035;-66
2021/10/05 10:17:50;;;;;;;6.65;1.60;;;;;;;;;;4999706;28;20097;-66
2021/10/05 10:20:21;;;;;;;5.78;2.00;;;;;;;;;;5002495;28;20053;-63
2021/10/05 10:22:48;;;;;;;2.88;1.15;;;;;;;;;;5008564;28;20085;-65
2021/10/05 10:25:21;;;;;;;9.05;1.35;;;;;;;;;;5023598;28;20044;-66
2021/10/05 10:27:48;;;;;;;4.22;1.35;;;;;;;;;;5019673;28;20040;-61
2021/10/05 10:30:16;;;;;;;5.75;1.38;;;;;;;;;;5020802;28;20139;-63
2021/10/05 10:32:45;;;;;;;5.68;1.48;;;;;;;;;;5023394;28;20033;-61
2021/10/05 10:35:13;;;;;;;6.53;1.70;;;;;;;;;;5021053;28;20052;-65
2021/10/05 10:37:43;;;;;;;4.43;2.10;;;;;;;;;;5017703;28;20033;-61
2021/10/05 10:40:11;;;;;;;3.58;1.35;;;;;;;;;;5021124;28;20049;-62
2021/10/05 10:42:37;;;;;;;3.92;1.30;;;;;;;;;;5030046;28;20053;-65
2021/10/05 10:45:11;;;;;;;3.58;1.30;;;;;;;;;;5021295;28;20052;-64
2021/10/05 10:47:39;;;;;;;3.08;1.20;;;;;;;;;;5019930;28;20037;-63
2021/10/05 10:50:09;;;;;;;2.65;1.30;;;;;;;;;;5009099;28;20078;-66
2021/10/05 10:52:36;;;;;;;4.50;1.30;;;;;;;;;;5000411;28;20030;-62
2021/10/05 10:55:04;;;;;;;2.15;1.08;;;;;;;;;;4998529;28;20058;-65
2021/10/05 10:57:34;;;;;;;6.37;1.20;;;;;;;;;;4999106;28;20057;-65
2021/10/05 11:00:19;;;;;;;6.95;1.20;;;;;;;;;;5009641;28;20034;-61
2021/10/05 11:02:47;;;;;;;5.60;1.13;;;;;;;;;;5001242;28;20050;-63
2021/10/05 11:05:17;;;;;;;3.88;0.95;;;;;;;;;;5013792;28;20034;-59
2021/10/05 11:07:43;;;;;;;1.83;0.60;;;;;;;;;;5034634;28;20041;-62
2021/10/05 11:10:10;;;;;;;1.75;1.08;;;;;;;;;;5034645;28;20056;-62
2021/10/05 11:12:39;;;;;;;3.25;1.00;;;;;;;;;;5039757;28;20048;-65
2021/10/05 11:15:07;;;;;;;2.58;1.17;;;;;;;;;;5032977;28;20042;-63
2021/10/05 11:17:35;;;;;;;3.60;0.97;;;;;;;;;;5022052;28;20053;-64
2021/10/05 11:20:05;;;;;;;4.30;1.10;;;;;;;;;;5025669;28;20310;-62
2021/10/05 11:22:34;;;;;;;7.10;0.90;;;;;;;;;;5027634;28;20049;-65
2021/10/05 11:25:00;;;;;;;7.85;1.33;;;;;;;;;;5011021;28;20078;-66
2021/10/05 11:27:27;;;;;;;3.45;0.98;;;;;;;;;;5000128;28;20057;-63
2021/10/05 11:30:00;;;;;;;2.65;0.95;;;;;;;;;;5013538;28;20044;-67
2021/10/05 11:32:26;;;;;;;4.75;1.08;;;;;;;;;;5019341;28;20057;-66
2021/10/05 11:34:53;;;;;;;4.90;1.05;;;;;;;;;;5018073;28;20044;-65
2021/10/05 11:37:21;;;;;;;4.03;1.00;;;;;;;;;;5038723;28;20065;-67
2021/10/05 11:39:50;;;;;;;4.72;1.20;;;;;;;;;;5037018;28;20041;-65
2021/10/05 11:42:19;;;;;;;2.88;1.00;;;;;;;;;;5019422;28;20057;-64
2021/10/05 11:44:45;;;;;;;;;;;;;;;;;;5021249;28;20119;-66
2021/10/05 11:47:13;;;;;;;2.17;1.00;;;;;;;;;;5027529;28;19949;-66
2021/10/05 11:49:42;;;;;;;3.10;0.90;;;;;;;;;;5005277;28;20072;-63
2021/10/05 11:52:11;;;;;;;1.33;0.80;;;;;;;;;;5001830;28;20057;-63
2021/10/05 11:54:38;;;;;;;5.05;1.00;;;;;;;;;;5002144;28;20042;-64
2021/10/05 11:57:10;;;;;;;4.25;0.90;;;;;;;;;;5013488;28;20053;-65
2021/10/05 11:59:39;;;;;;;4.05;1.00;;;;;;;;;;5023072;28;20116;-63
2021/10/05 12:02:06;;;;;;;4.53;1.05;;;;;;;;;;5004167;28;20042;-65
2021/10/05 12:04:33;;;;;;;6.60;1.00;;;;;;;;;;5000762;28;20049;-64
2021/10/05 12:07:01;;;;;;;4.13;0.90;;;;;;;;;;4996789;28;20056;-66
2021/10/05 12:09:29;;;;;;;10.48;1.50;;;;;;;;;;5001411;28;20041;-64
2021/10/05 12:11:58;;;;;;;2.78;1.30;;;;;;;;;;5003793;28;20089;-66
2021/10/05 12:14:32;;;;;;;1.75;0.93;;;;;;;;;;5002278;28;20062;-61
2021/10/05 12:17:00;;;;;;;3.20;1.15;;;;;;;;;;5000018;28;20056;-64
2021/10/05 12:19:27;;;;;;;2.20;0.90;;;;;;;;;;5002523;28;20038;-65
2021/10/05 12:21:54;;;;;;;1.20;0.73;;;;;;;;;;5003239;28;20123;-62
2021/10/05 12:24:21;;;;;;;3.63;1.10;;;;;;;;;;5022425;28;20037;-62
2021/10/05 12:26:48;;;;;;;4.72;1.20;;;;;;;;;;5018568;28;20054;-66
2021/10/05 12:29:16;;;;;;;5.00;1.15;;;;;;;;;;5003172;28;20061;-63
2021/10/05 12:31:53;;;;;;;1.40;0.80;;;;;;;;;;5000886;28;20049;-66
2021/10/05 12:34:20;;;;;;;5.38;1.55;;;;;;;;;;5002554;28;20086;-66
2021/10/05 12:36:49;;;;;;;5.03;0.98;;;;;;;;;;5002695;28;20030;-62
2021/10/05 12:39:16;;;;;;;4.85;1.08;;;;;;;;;;5015240;28;20042;-64
2021/10/05 12:41:43;;;;;;;6.43;0.90;;;;;;;;;;5010831;28;20050;-65
2021/10/05 12:44:16;;;;;;;2.22;0.80;;;;;;;;;;5004387;28;20042;-65
2021/10/05 12:46:53;;;;;;;9.82;1.08;;;;;;;;;;5002586;28;20049;-66
2021/10/05 12:49:21;;;;;;;3.13;0.77;;;;;;;;;;4997957;28;20116;-65
2021/10/05 12:51:48;;;;;;;3.85;0.70;;;;;;;;;;5002984;28;20140;-67
2021/10/05 12:54:15;;;;;;;2.03;0.70;;;;;;;;;;4998751;28;20058;-66
2021/10/05 12:56:41;;;;;;;3.65;0.68;;;;;;;;;;5004531;28;20189;-65
2021/10/05 12:59:10;;;;;;;3.67;0.70;;;;;;;;;;4999946;28;20038;-67
2021/10/05 13:01:38;;;;;;;3.05;0.70;;;;;;;;;;5003308;28;20046;-66
2021/10/05 13:04:06;;;;;;;3.63;0.70;;;;;;;;;;4999362;28;20065;-65
2021/10/05 13:06:33;;;;;;;2.33;0.65;;;;;;;;;;5001331;28;20050;-63
2021/10/05 13:09:00;;;;;;;6.10;0.75;;;;;;;;;;4997024;28;20034;-66
2021/10/05 13:11:27;;;;;;;7.80;0.77;;;;;;;;;;5017925;28;20048;-63
2021/10/05 13:13:53;;;;;;;2.33;0.70;;;;;;;;;;5000529;28;20056;-61
2021/10/05 13:16:20;;;;;;;1.75;0.70;;;;;;;;;;5001322;28;20074;-68
2021/10/05 13:18:47;;;;;;;4.43;0.80;;;;;;;;;;4998019;28;20050;-65
2021/10/05 13:21:14;;;;;;;1.90;0.60;;;;;;;;;;5000628;28;20050;-67
2021/10/05 13:23:41;;;;;;;3.08;0.57;;;;;;;;;;5001612;28;20060;-63
2021/10/05 13:26:08;;;;;;;5.00;0.65;;;;;;;;;;5000183;28;20034;-65
2021/10/05 13:28:34;;;;;;;5.10;0.90;;;;;;;;;;5010897;28;20117;-64
2021/10/05 13:31:01;;;;;;;3.15;0.73;;;;;;;;;;5039641;28;20037;-65
2021/10/05 13:33:28;;;;;;;4.28;0.88;;;;;;;;;;5043109;28;20040;-64
2021/10/05 13:35:54;;;;;;;5.20;0.80;;;;;;;;;;5036905;28;20108;-63
2021/10/05 13:38:22;;;;;;;3.15;1.00;;;;;;;;;;5041789;28;20142;-64
2021/10/05 13:40:49;;;;;;;5.20;1.93;;;;;;;;;;5027679;28;20052;-63
2021/10/05 13:43:16;;;;;;;6.45;0.90;;;;;;;;;;5040301;28;20454;-64
2021/10/05 13:45:43;;;;;;;1.67;0.80;;;;;;;;;;5038949;28;20045;-63
2021/10/05 13:48:10;;;;;;;4.15;1.00;;;;;;;;;;5042590;28;20033;-63
2021/10/05 13:50:39;;;;;;;4.18;1.10;;;;;;;;;;5038070;28;20065;-63
2021/10/05 13:53:05;;;;;;;;;;;;;;;;;;5041493;28;20157;-63
2021/10/05 13:55:33;;;;;;;8.18;0.95;;;;;;;;;;5032439;28;19928;-62
2021/10/05 13:58:00;;;;;;;4.40;0.65;;;;;;;;;;5021740;28;20131;-63
2021/10/05 14:00:26;;;;;;;2.70;0.60;;;;;;;;;;5018898;28;20061;-60
2021/10/05 14:02:53;;;;;;;1.73;0.50;;;;;;;;;;5021362;28;20045;-60
2021/10/05 14:05:21;;;;;;;5.03;0.90;;;;;;;;;;5015721;28;20038;-63
2021/10/05 14:07:48;;;;;;;1.35;0.60;;;;;;;;;;5000490;28;20042;-63
2021/10/05 14:10:15;;;;;;;5.63;0.90;;;;;;;;;;5002212;28;20049;-63
2021/10/05 14:12:42;;;;;;;3.33;0.90;;;;;;;;;;5018892;28;20072;-58
2021/10/05 14:15:09;;;;;;;4.93;1.00;;;;;;;;;;5021005;28;20041;-60
2021/10/05 14:17:36;;;;;;;4.00;1.02;;;;;;;;;;5034438;28;20087;-60
2021/10/05 14:20:05;;;;;;;1.58;0.65;;;;;;;;;;5020653;28;20115;-60
2021/10/05 14:22:31;;;;;;;1.95;0.77;;;;;;;;;;5007200;28;20045;-60
2021/10/05 14:24:58;;;;;;;6.38;0.80;;;;;;;;;;5000748;28;20145;-60
2021/10/05 14:27:26;;;;;;;4.10;0.68;;;;;;;;;;4998688;28;20046;-61
2021/10/05 14:29:56;;;;;;;4.18;0.90;;;;;;;;;;5003939;28;20050;-60
2021/10/05 14:32:22;;;;;;;5.53;1.20;;;;;;;;;;5008684;28;20045;-60
2021/10/05 14:34:49;;;;;;;5.15;1.60;;;;;;;;;;5021067;28;20041;-59
2021/10/05 14:37:16;;;;;;;4.40;1.20;;;;;;;;;;5015598;28;20040;-59
2021/10/05 14:39:42;;;;;;;3.10;0.77;;;;;;;;;;5022037;28;20061;-60
2021/10/05 14:42:09;;;;;;;2.28;0.98;;;;;;;;;;5025325;28;20057;-60
2021/10/05 14:44:35;;;;;;;4.05;1.13;;;;;;;;;;5021685;28;20041;-59
2021/10/05 14:47:03;;;;;;;7.55;1.00;;;;;;;;;;5019019;28;20046;-60
2021/10/05 14:49:30;;;;;;;3.40;1.02;;;;;;;;;;5041424;28;20044;-61